Time;durP1;ratioP1;P1;durP2;ratioP2;P2;SDS_P1;SDS_P2;PMS_P1;PMS_P2;Temp;Humidity;BMP_temperature;BMP_pressure;BME280_temperature;BME280_humidity;BME280_pressure;Samples;Min_cycle;Max_cycle;Signal;HPM_P1;HPM_P2
2023/01/11 00:02:04;;;;;;;;;;;8.20;85.60;;;;;;5026481;28;19945;-88
2023/01/11 00:04:33;;;;;;;;;;;8.20;85.50;;;;;;4998371;28;19921;-86
2023/01/11 00:07:04;;;;;;;;;;;8.30;85.60;;;;;;5030361;28;19961;-87
2023/01/11 00:09:34;;;;;;;;;;;8.30;85.40;;;;;;4991416;28;19931;-87
2023/01/11 00:12:00;;;;;;;;;;;8.30;85.30;;;;;;5005275;28;19968;-86
2023/01/11 00:14:30;;;;;;;;;;;8.40;85.20;;;;;;5005881;28;19913;-87
2023/01/11 00:17:09;;;;;;;;;;;8.40;84.80;;;;;;5016234;28;19921;-88
2023/01/11 00:19:37;;;;;;;;;;;8.30;85.10;;;;;;4996725;28;19914;-88
2023/01/11 00:22:05;;;;;;;;;;;8.30;85.20;;;;;;5002957;28;19917;-87
2023/01/11 00:24:42;;;;;;;;;;;8.40;85.10;;;;;;5012657;28;19937;-88
2023/01/11 00:27:33;;;;;;;;;;;8.50;84.80;;;;;;5004736;28;20001;-87
2023/01/11 00:30:04;;;;;;;;;;;8.50;84.80;;;;;;5003209;28;19940;-87
2023/01/11 00:32:39;;;;;;;;;;;8.50;84.90;;;;;;5025160;28;19985;-88
2023/01/11 00:35:05;;;;;;;;;;;8.50;84.80;;;;;;5020625;28;19921;-87
2023/01/11 00:37:34;;;;;;;;;;;8.50;84.70;;;;;;5010877;28;19918;-87
2023/01/11 00:40:06;;;;;;;;;;;8.50;84.70;;;;;;4994830;28;19921;-87
2023/01/11 00:48:00;;;;;;;;;;;8.50;85.20;;;;;;5027166;28;19932;-87
2023/01/11 00:50:31;;;;;;;;;;;8.50;85.40;;;;;;4995325;28;19921;-88
2023/01/11 00:52:57;;;;;;;;;;;8.50;85.30;;;;;;4999497;28;20044;-87
2023/01/11 00:55:30;;;;;;;;;;;8.50;85.30;;;;;;4999334;28;19914;-87
2023/01/11 00:57:56;;;;;;;;;;;8.50;85.30;;;;;;5017744;28;19968;-88
2023/01/11 01:00:30;;;;;;;;;;;8.50;85.30;;;;;;5002943;28;19929;-88
2023/01/11 01:02:56;;;;;;;;;;;8.50;85.50;;;;;;4997144;28;20414;-87
2023/01/11 01:05:24;;;;;;;;;;;8.50;85.40;;;;;;4998670;28;19918;-86
2023/01/11 01:07:50;;;;;;;;;;;8.50;85.30;;;;;;5007038;28;20020;-88
2023/01/11 01:10:31;;;;;;;;;;;8.60;85.40;;;;;;4999226;28;19956;-88
2023/01/11 01:15:54;;;;;;;;;;;8.60;85.30;;;;;;5010209;28;20459;-88
2023/01/11 01:18:20;;;;;;;;;;;8.80;85.00;;;;;;4983785;28;19921;-88
2023/01/11 01:20:48;;;;;;;;;;;8.80;85.10;;;;;;4998734;28;19922;-88
2023/01/11 01:23:17;;;;;;;;;;;8.80;85.20;;;;;;4996973;28;20333;-88
2023/01/11 01:25:45;;;;;;;;;;;8.90;84.70;;;;;;4993103;28;19956;-88
2023/01/11 01:28:14;;;;;;;;;;;9.00;84.60;;;;;;4988153;28;19918;-88
2023/01/11 01:30:42;;;;;;;;;;;8.90;84.50;;;;;;5003225;28;20008;-88
2023/01/11 01:33:17;;;;;;;;;;;;;;;;;;;;;
2023/01/11 01:35:43;;;;;;;;;;;9.10;84.30;;;;;;5019984;28;19913;-86
2023/01/11 01:38:11;;;;;;;;;;;9.10;84.30;;;;;;4993538;28;20027;-85
2023/01/11 01:40:40;;;;;;;;;;;9.10;84.10;;;;;;5009759;28;19960;-85
2023/01/11 01:43:09;;;;;;;;;;;9.10;84.40;;;;;;4994495;28;19921;-88
2023/01/11 01:45:37;;;;;;;;;;;9.00;84.60;;;;;;4990101;28;20323;-88
2023/01/11 01:48:07;;;;;;;;;;;9.10;84.50;;;;;;4984798;28;19989;-88
2023/01/11 01:50:40;;;;;;;;;;;9.10;84.20;;;;;;4994808;28;19964;-88
2023/01/11 01:53:17;;;;;;;;;;;9.10;84.30;;;;;;5004333;28;20294;-87
2023/01/11 01:55:44;;;;;;;;;;;9.10;84.30;;;;;;4989070;28;19957;-88
2023/01/11 01:58:22;;;;;;;;;;;9.10;84.50;;;;;;5002209;28;20443;-88
2023/01/11 02:00:48;;;;;;;;;;;9.10;84.60;;;;;;4991662;28;20229;-88
2023/01/11 02:03:20;;;;;;;;;;;9.10;84.50;;;;;;5014880;28;20355;-87
2023/01/11 02:05:49;;;;;;;;;;;9.10;84.30;;;;;;4993462;28;19925;-87
2023/01/11 02:08:36;;;;;;;;;;;9.10;84.30;;;;;;4996680;28;20452;-88
2023/01/11 02:11:02;;;;;;;;;;;9.10;84.60;;;;;;5013109;28;19932;-87
2023/01/11 02:13:44;;;;;;;;;;;9.10;84.50;;;;;;5008073;28;19928;-87
2023/01/11 02:16:10;;;;;;;;;;;9.10;84.30;;;;;;5000077;28;19918;-88
2023/01/11 02:18:41;;;;;;;;;;;9.10;84.50;;;;;;4990892;28;19917;-87
2023/01/11 02:21:23;;;;;;;;;;;9.20;84.50;;;;;;4993856;28;19913;-88
2023/01/11 02:23:51;;;;;;;;;;;9.20;84.50;;;;;;5007527;28;19913;-86
2023/01/11 02:26:20;;;;;;;;;;;9.10;84.90;;;;;;4988178;28;19922;-86
2023/01/11 02:28:53;;;;;;;;;;;9.20;85.00;;;;;;4991693;28;20586;-85
2023/01/11 02:31:25;;;;;;;;;;;9.10;85.70;;;;;;4998150;28;19936;-86
2023/01/11 02:33:50;;;;;;;;;;;9.20;85.60;;;;;;5007011;28;19976;-86
2023/01/11 02:36:32;;;;;;;;;;;9.10;86.10;;;;;;4995380;28;19914;-87
2023/01/11 02:39:07;;;;;;;;;;;9.10;86.10;;;;;;4996308;28;20081;-86
2023/01/11 02:45:02;;;;;;;;;;;9.00;86.80;;;;;;5007200;28;19920;-87
2023/01/11 02:47:38;;;;;;;;;;;9.10;86.90;;;;;;4985558;28;19918;-87
2023/01/11 02:50:21;;;;;;;;;;;9.10;87.20;;;;;;4991210;28;19925;-87
2023/01/11 02:52:56;;;;;;;;;;;9.10;87.50;;;;;;5018456;28;20120;-87
2023/01/11 02:55:24;;;;;;;;;;;9.10;87.60;;;;;;4987811;28;19943;-87
2023/01/11 02:57:54;;;;;;;;;;;9.00;87.70;;;;;;5004811;28;20393;-86
2023/01/11 03:00:20;;;;;;;;;;;9.00;88.00;;;;;;5013636;28;20006;-87
2023/01/11 03:02:51;;;;;;;;;;;9.00;88.00;;;;;;4989584;28;19917;-87
2023/01/11 03:05:19;;;;;;;;;;;9.00;88.00;;;;;;5012029;28;19914;-87
2023/01/11 03:07:45;;;;;;;;;;;9.00;88.00;;;;;;4997876;28;19917;-87
2023/01/11 03:10:17;;;;;;;;;;;9.10;88.00;;;;;;4992299;28;19967;-87
2023/01/11 03:12:53;;;;;;;;;;;9.10;88.10;;;;;;5003311;28;19914;-85
2023/01/11 03:15:22;;;;;;;;;;;9.20;88.00;;;;;;4996490;28;20298;-86
2023/01/11 03:18:02;;;;;;;;;;;9.20;87.60;;;;;;4997588;28;19933;-87
2023/01/11 03:20:44;;;;;;;;;;;9.20;87.80;;;;;;5007347;28;20294;-87
2023/01/11 03:23:12;;;;;;;;;;;9.10;88.20;;;;;;5005053;28;19983;-87
2023/01/11 03:26:04;;;;;;;;;;;9.10;88.60;;;;;;5003346;28;20280;-86
2023/01/11 03:28:33;;;;;;;;;;;9.10;89.00;;;;;;5007700;28;19967;-87
2023/01/11 03:31:25;;;;;;;;;;;9.00;89.60;;;;;;4996831;28;19913;-87
2023/01/11 03:33:54;;;;;;;;;;;9.00;89.50;;;;;;4986032;28;19966;-87
2023/01/11 03:36:22;;;;;;;;;;;9.00;89.90;;;;;;5011122;28;19929;-86
2023/01/11 03:38:58;;;;;;;;;;;9.00;90.10;;;;;;4993603;28;19913;-87
2023/01/11 03:41:29;;;;;;;;;;;9.00;90.00;;;;;;5001830;28;20005;-87
2023/01/11 03:43:56;;;;;;;;;;;9.10;89.90;;;;;;4982550;28;20371;-87
2023/01/11 03:46:54;;;;;;;;;;;9.10;90.10;;;;;;4988518;28;19924;-87
2023/01/11 03:49:23;;;;;;;;;;;9.00;90.40;;;;;;4993247;28;19918;-87
2023/01/11 03:51:49;;;;;;;;;;;9.10;90.60;;;;;;5003475;28;19913;-87
2023/01/11 03:54:19;;;;;;;;;;;9.10;90.50;;;;;;4994377;28;19918;-87
2023/01/11 03:56:50;;;;;;;;;;;9.10;90.60;;;;;;5010873;28;19913;-87
2023/01/11 03:59:18;;;;;;;;;;;9.00;90.70;;;;;;5009542;28;19959;-87
2023/01/11 04:01:44;;;;;;;;;;;9.10;90.70;;;;;;4999115;28;19920;-88
2023/01/11 04:04:09;;;;;;;;;;;9.10;90.90;;;;;;5009325;28;20367;-87
2023/01/11 04:06:38;;;;;;;;;;;9.10;91.20;;;;;;4980613;28;19917;-87
2023/01/11 04:09:06;;;;;;;;;;;9.00;91.20;;;;;;4991260;28;19918;-88
2023/01/11 04:11:32;;;;;;;;;;;9.10;91.50;;;;;;5022161;22;19926;-81
2023/01/11 04:13:57;;;;;;;;;;;9.10;91.30;;;;;;4993159;28;19914;-81
2023/01/11 04:16:23;;;;;;;;;;;9.10;91.40;;;;;;5014947;28;19924;-80
2023/01/11 04:18:48;;;;;;;;;;;9.10;91.40;;;;;;5025349;28;20273;-81
2023/01/11 04:21:14;;;;;;;;;;;9.20;91.50;;;;;;5016615;28;19910;-82
2023/01/11 04:23:39;;;;;;;;;;;9.10;91.50;;;;;;5019879;28;19913;-82
2023/01/11 04:26:05;;;;;;;;;;;9.10;91.70;;;;;;4999825;28;20373;-81
2023/01/11 04:28:31;;;;;;;;;;;9.10;91.80;;;;;;5013305;28;20296;-80
2023/01/11 04:30:56;;;;;;;;;;;9.10;91.80;;;;;;5013987;28;19960;-81
2023/01/11 04:33:22;;;;;;;;;;;9.20;91.80;;;;;;5013208;28;19997;-80
2023/01/11 04:35:48;;;;;;;;;;;9.20;91.70;;;;;;5014475;28;19913;-81
2023/01/11 04:38:14;;;;;;;;;;;9.20;91.50;;;;;;5023536;28;19913;-81
2023/01/11 04:40:39;;;;;;;;;;;9.10;91.60;;;;;;5011409;28;19921;-81
2023/01/11 04:43:05;;;;;;;;;;;9.10;91.90;;;;;;5018981;28;19914;-81
2023/01/11 04:45:30;;;;;;;;;;;9.20;91.90;;;;;;5013766;28;19944;-81
2023/01/11 04:47:56;;;;;;;;;;;9.20;91.90;;;;;;5019017;28;19923;-82
2023/01/11 04:50:22;;;;;;;;;;;9.30;91.80;;;;;;5006272;28;19921;-82
2023/01/11 04:52:48;;;;;;;;;;;9.30;91.70;;;;;;5006691;28;19920;-80
2023/01/11 04:55:13;;;;;;;;;;;9.30;91.80;;;;;;5021809;28;19913;-81
2023/01/11 04:57:39;;;;;;;;;;;9.30;91.70;;;;;;5012651;28;19909;-81
2023/01/11 05:00:09;;;;;;;;;;;9.40;91.50;;;;;;5015458;28;19921;-81
2023/01/11 05:02:38;;;;;;;;;;;9.40;91.70;;;;;;5014783;28;19964;-82
2023/01/11 05:05:04;;;;;;;;;;;9.30;91.60;;;;;;5014799;28;19913;-81
2023/01/11 05:07:30;;;;;;;;;;;9.40;91.50;;;;;;5025258;28;19914;-82
2023/01/11 05:09:55;;;;;;;;;;;9.40;91.40;;;;;;5020148;28;20005;-82
2023/01/11 05:12:21;;;;;;;;;;;9.40;91.70;;;;;;5025695;28;20055;-82
2023/01/11 05:14:46;;;;;;;;;;;9.30;91.80;;;;;;5016095;28;19914;-83
2023/01/11 05:17:12;;;;;;;;;;;9.30;92.00;;;;;;5023450;28;19913;-82
2023/01/11 05:19:38;;;;;;;;;;;9.30;92.00;;;;;;5018786;28;19953;-82
2023/01/11 05:22:03;;;;;;;;;;;9.40;92.30;;;;;;5017736;28;19915;-82
2023/01/11 05:24:29;;;;;;;;;;;9.40;92.40;;;;;;5027378;28;19988;-81
2023/01/11 05:26:54;;;;;;;;;;;9.40;92.40;;;;;;5031279;28;20471;-82
2023/01/11 05:29:20;;;;;;;;;;;9.40;92.40;;;;;;5017491;28;21402;-83
2023/01/11 05:31:46;;;;;;;;;;;9.50;92.40;;;;;;5012944;28;19940;-83
2023/01/11 05:34:12;;;;;;;;;;;9.50;92.40;;;;;;5021694;28;19924;-84
2023/01/11 05:36:38;;;;;;;;;;;9.50;92.40;;;;;;5017436;28;20001;-84
2023/01/11 05:39:04;;;;;;;;;;;9.40;92.50;;;;;;5015552;28;19902;-85
2023/01/11 05:41:29;;;;;;;;;;;9.50;92.60;;;;;;5020794;28;19921;-85
2023/01/11 05:46:40;;;;;;;;;;;9.60;92.80;;;;;;5014009;28;19980;-83
2023/01/11 05:49:07;;;;;;;;;;;9.50;92.60;;;;;;5021307;28;19917;-84
2023/01/11 05:51:32;;;;;;;;;;;9.60;92.70;;;;;;5019058;28;19972;-83
2023/01/11 05:53:58;;;;;;;;;;;9.60;92.90;;;;;;5008373;28;19917;-85
2023/01/11 05:56:24;;;;;;;;;;;9.70;92.80;;;;;;5015690;28;19960;-83
2023/01/11 05:58:50;;;;;;;;;;;9.60;92.80;;;;;;5011974;28;19917;-86
2023/01/11 06:01:17;;;;;;;;;;;9.70;92.90;;;;;;5012378;28;19935;-86
2023/01/11 06:03:43;;;;;;;;;;;9.70;92.90;;;;;;5007963;28;19943;-87
2023/01/11 06:06:08;;;;;;;;;;;9.70;92.70;;;;;;5011747;28;19918;-83
2023/01/11 06:08:34;;;;;;;;;;;9.80;92.80;;;;;;5029640;28;19917;-78
2023/01/11 06:10:59;;;;;;;;;;;9.80;92.80;;;;;;5021282;28;19917;-81
2023/01/11 06:13:25;;;;;;;;;;;9.80;92.90;;;;;;5020055;28;20601;-83
2023/01/11 06:16:08;;;;;;;;;;;9.80;93.00;;;;;;5020803;28;19918;-84
2023/01/11 06:18:38;;;;;;;;;;;9.90;93.20;;;;;;5023058;28;19967;-82
2023/01/11 06:21:04;;;;;;;;;;;9.90;92.90;;;;;;5011549;28;19989;-83
2023/01/11 06:23:31;;;;;;;;;;;9.90;93.00;;;;;;5025974;28;20344;-82
2023/01/11 06:25:59;;;;;;;;;;;9.90;92.90;;;;;;5023950;28;19913;-85
2023/01/11 06:28:25;;;;;;;;;;;9.90;93.00;;;;;;5017759;28;19930;-84
2023/01/11 06:30:54;;;;;;;;;;;9.90;93.10;;;;;;5021949;28;19925;-91
2023/01/11 06:33:20;;;;;;;;;;;10.00;93.20;;;;;;5010971;28;19918;-85
2023/01/11 06:35:45;;;;;;;;;;;10.00;93.20;;;;;;5023036;28;19922;-87
2023/01/11 06:38:12;;;;;;;;;;;10.00;93.30;;;;;;5011720;28;20384;-85
2023/01/11 06:40:38;;;;;;;;;;;10.00;93.30;;;;;;5011805;28;20049;-87
2023/01/11 06:43:04;;;;;;;;;;;10.00;93.30;;;;;;5022875;28;19952;-87
2023/01/11 06:45:30;;;;;;;;;;;10.10;93.30;;;;;;5019940;28;19925;-84
2023/01/11 06:47:59;;;;;;;;;;;10.10;93.20;;;;;;5006294;28;19932;-86
2023/01/11 06:50:25;;;;;;;;;;;10.10;93.20;;;;;;5042668;28;19985;-87
2023/01/11 06:52:52;;;;;;;;;;;10.10;93.30;;;;;;5047488;28;19910;-85
2023/01/11 06:55:17;;;;;;;;;;;10.10;93.20;;;;;;5030369;28;20112;-84
2023/01/11 06:57:43;;;;;;;;;;;10.10;93.30;;;;;;5021637;28;19960;-86
2023/01/11 07:00:10;;;;;;;;;;;10.20;93.30;;;;;;5025003;28;19914;-85
2023/01/11 07:02:36;;;;;;;;;;;10.20;93.40;;;;;;5044350;28;19924;-86
2023/01/11 07:05:01;;;;;;;;;;;10.20;93.30;;;;;;5028923;28;19953;-85
2023/01/11 07:07:27;;;;;;;;;;;10.30;93.40;;;;;;5029389;28;19914;-86
2023/01/11 07:09:53;;;;;;;;;;;10.30;93.30;;;;;;5028476;28;19897;-84
2023/01/11 07:12:18;;;;;;;;;;;10.30;93.30;;;;;;5030236;28;20274;-84
2023/01/11 07:14:44;;;;;;;;;;;10.30;93.40;;;;;;5025042;28;19917;-84
2023/01/11 07:17:09;;;;;;;;;;;10.20;93.30;;;;;;5026197;28;20372;-84
2023/01/11 07:19:35;;;;;;;;;;;10.30;93.50;;;;;;5023582;28;19914;-84
2023/01/11 07:22:00;;;;;;;;;;;10.30;93.30;;;;;;5029531;28;19945;-85
2023/01/11 07:24:26;;;;;;;;;;;10.40;93.40;;;;;;5028885;28;19901;-83
2023/01/11 07:26:53;;;;;;;;;;;10.30;93.50;;;;;;5027444;28;19968;-81
2023/01/11 07:29:19;;;;;;;;;;;10.40;93.50;;;;;;5022202;28;19924;-77
2023/01/11 07:31:44;;;;;;;;;;;10.50;93.40;;;;;;5023496;28;19913;-81
2023/01/11 07:34:10;;;;;;;;;;;10.60;93.10;;;;;;5024583;28;20008;-82
2023/01/11 07:36:38;;;;;;;;;;;10.50;93.20;;;;;;5039587;28;19940;-82
2023/01/11 07:39:04;;;;;;;;;;;10.50;93.30;;;;;;5042509;28;19981;-83
2023/01/11 07:44:13;;;;;;;;;;;10.50;93.30;;;;;;5021570;28;19944;-82
2023/01/11 07:46:39;;;;;;;;;;;10.50;93.30;;;;;;5026794;28;19917;-82
2023/01/11 07:49:04;;;;;;;;;;;10.50;93.30;;;;;;5021577;28;19913;-81
2023/01/11 07:51:30;;;;;;;;;;;10.50;93.30;;;;;;5014482;28;19920;-81
2023/01/11 07:53:55;;;;;;;;;;;10.50;93.60;;;;;;5010049;28;20028;-81
2023/01/11 07:56:21;;;;;;;;;;;10.50;93.40;;;;;;5026779;28;19940;-82
2023/01/11 07:58:46;;;;;;;;;;;10.50;93.50;;;;;;5028273;28;19935;-83
2023/01/11 08:01:12;;;;;;;;;;;10.50;93.60;;;;;;5034040;28;19923;-88
2023/01/11 08:03:37;;;;;;;;;;;10.50;93.60;;;;;;5011497;28;19959;-87
2023/01/11 08:06:03;;;;;;;;;;;10.50;93.60;;;;;;5029009;28;19921;-86
2023/01/11 08:08:28;;;;;;;;;;;10.50;93.80;;;;;;5027322;28;20262;-86
2023/01/11 08:16:26;;;;;;;;;;;10.50;93.60;;;;;;5034529;28;19928;-85
2023/01/11 08:18:52;;;;;;;;;;;10.50;93.70;;;;;;5027991;28;19936;-82
2023/01/11 08:21:20;;;;;;;;;;;10.50;93.70;;;;;;5018678;28;20000;-83
2023/01/11 08:23:45;;;;;;;;;;;10.50;93.50;;;;;;5029679;28;19910;-83
2023/01/11 08:26:15;;;;;;;;;;;10.50;93.70;;;;;;5034864;28;19961;-83
2023/01/11 08:28:41;;;;;;;;;;;10.50;93.60;;;;;;5028368;28;19918;-83
2023/01/11 08:31:07;;;;;;;;;;;10.50;93.40;;;;;;5019353;28;19909;-83
2023/01/11 08:33:33;;;;;;;;;;;10.60;93.70;;;;;;5016795;28;20377;-83
2023/01/11 08:36:03;;;;;;;;;;;10.60;93.50;;;;;;5025924;28;19921;-83
2023/01/11 08:38:28;;;;;;;;;;;10.60;93.40;;;;;;5027749;28;20312;-83
2023/01/11 08:40:54;;;;;;;;;;;10.60;93.30;;;;;;5025090;28;19921;-82
2023/01/11 08:43:19;;;;;;;;;;;10.60;93.20;;;;;;5021950;28;20004;-81
2023/01/11 08:45:45;;;;;;;;;;;10.70;93.30;;;;;;5023965;28;19941;-81
2023/01/11 08:48:11;;;;;;;;;;;10.60;93.20;;;;;;5024586;28;19928;-81
2023/01/11 08:50:36;;;;;;;;;;;10.70;93.30;;;;;;5026190;28;19913;-80
2023/01/11 08:53:02;;;;;;;;;;;10.70;93.30;;;;;;5025915;28;20014;-81
2023/01/11 08:55:29;;;;;;;;;;;10.60;93.10;;;;;;5025362;28;19920;-82
2023/01/11 08:57:58;;;;;;;;;;;10.60;93.30;;;;;;5027827;28;19921;-83
2023/01/11 09:00:23;;;;;;;;;;;10.80;93.30;;;;;;5030740;28;19898;-83
2023/01/11 09:02:49;;;;;;;;;;;10.70;93.30;;;;;;5031457;28;20008;-84
2023/01/11 09:05:14;;;;;;;;;;;10.70;93.00;;;;;;5028540;28;19952;-84
2023/01/11 09:07:40;;;;;;;;;;;10.80;93.20;;;;;;5041865;28;19913;-85
2023/01/11 09:10:05;;;;;;;;;;;10.80;93.20;;;;;;5039030;28;19967;-84
2023/01/11 09:12:31;;;;;;;;;;;10.80;93.10;;;;;;5030824;28;19959;-84
2023/01/11 09:14:57;;;;;;;;;;;10.80;93.10;;;;;;5027898;28;19914;-84
2023/01/11 09:17:22;;;;;;;;;;;10.80;92.90;;;;;;5030678;28;19993;-84
2023/01/11 09:19:48;;;;;;;;;;;10.80;92.90;;;;;;5025436;28;19913;-82
2023/01/11 09:22:14;;;;;;;;;;;10.80;92.60;;;;;;5023577;28;19980;-82
2023/01/11 09:24:39;;;;;;;;;;;10.80;92.00;;;;;;5024416;28;19941;-81
2023/01/11 09:27:05;;;;;;;;;;;10.70;91.30;;;;;;5023047;28;19925;-81
2023/01/11 09:29:30;;;;;;;;;;;10.60;91.00;;;;;;5005374;28;19945;-80
2023/01/11 09:31:56;;;;;;;;;;;10.60;91.00;;;;;;5017691;28;19917;-81
2023/01/11 09:34:23;;;;;;;;;;;10.60;90.70;;;;;;5022648;28;20432;-79
2023/01/11 09:36:49;;;;;;;;;;;10.50;90.60;;;;;;5020156;28;19913;-80
2023/01/11 09:39:17;;;;;;;;;;;10.50;90.20;;;;;;5026574;28;19939;-80
2023/01/11 09:42:06;;;;;;;;;;;10.50;90.20;;;;;;5021852;28;20425;-80
2023/01/11 09:44:34;;;;;;;;;;;10.50;90.30;;;;;;5012592;28;19913;-80
2023/01/11 09:47:11;;;;;;;;;;;10.50;90.30;;;;;;5022510;28;19918;-80
2023/01/11 09:49:40;;;;;;;;;;;10.50;90.20;;;;;;5032470;28;19952;-80
2023/01/11 09:52:17;;;;;;;;;;;10.50;90.00;;;;;;5017568;28;19914;-79
2023/01/11 09:54:44;;;;;;;;;;;10.50;89.50;;;;;;5017676;28;19913;-79
2023/01/11 09:57:22;;;;;;;;;;;10.50;89.60;;;;;;5028718;28;19897;-80
2023/01/11 10:00:03;;;;;;;;;;;10.50;89.30;;;;;;5029729;28;19917;-78
2023/01/11 10:02:50;;;;;;;;;;;10.50;89.10;;;;;;5026487;28;20390;-81
2023/01/11 10:05:34;;;;;;;;;;;10.50;88.90;;;;;;5020425;28;19983;-81
2023/01/11 10:08:06;;;;;;;;;;;10.50;88.30;;;;;;5022998;28;19921;-80
2023/01/11 10:10:42;;;;;;;;;;;10.30;88.40;;;;;;5016121;28;20008;-79
2023/01/11 10:13:12;;;;;;;;;;;10.40;88.40;;;;;;5018776;28;19918;-78
2023/01/11 10:15:56;;;;;;;;;;;10.30;88.60;;;;;;5025137;28;19940;-77
2023/01/11 10:18:22;;;;;;;;;;;10.30;88.50;;;;;;5020636;28;19913;-79
2023/01/11 10:20:51;;;;;;;;;;;10.30;89.10;;;;;;5014222;28;19988;-78
2023/01/11 10:23:23;;;;;;;;;;;10.30;89.20;;;;;;5006450;28;19914;-78
2023/01/11 10:25:53;;;;;;;;;;;10.30;88.90;;;;;;5014149;28;19918;-79
2023/01/11 10:28:38;;;;;;;;;;;10.40;89.50;;;;;;5014058;28;19918;-79
2023/01/11 10:31:28;;;;;;;;;;;10.40;89.40;;;;;;5015659;28;19921;-77
2023/01/11 10:34:17;;;;;;;;;;;10.40;89.50;;;;;;5057649;23;19939;-89
2023/01/11 10:37:25;;;;;;;;;;;10.50;89.40;;;;;;5023019;28;19941;-91
2023/01/11 10:43:04;;;;;;;;;;;10.50;88.70;;;;;;5043680;28;20725;-89
2023/01/11 10:45:47;;;;;;;;;;;10.50;88.70;;;;;;5026468;28;20280;-88
2023/01/11 10:48:21;;;;;;;;;;;10.50;88.30;;;;;;5026499;28;20370;-88
2023/01/11 10:50:51;;;;;;;;;;;10.40;88.30;;;;;;5032260;28;20255;-88
2023/01/11 10:53:39;;;;;;;;;;;10.50;88.00;;;;;;5030962;28;20128;-89
2023/01/11 10:56:19;;;;;;;;;;;10.50;87.40;;;;;;5057119;28;19979;-85
2023/01/11 10:59:05;;;;;;;;;;;10.50;87.40;;;;;;5028335;28;21447;-88
2023/01/11 11:01:41;;;;;;;;;;;10.50;87.80;;;;;;5036949;28;19912;-87
2023/01/11 11:04:24;;;;;;;;;;;10.40;88.00;;;;;;5027036;28;19920;-87
2023/01/11 11:07:11;;;;;;;;;;;10.50;88.50;;;;;;5032333;28;19920;-88
2023/01/11 11:09:52;;;;;;;;;;;10.50;88.30;;;;;;5026712;28;19967;-87
2023/01/11 11:12:21;;;;;;;;;;;10.50;87.60;;;;;;5016312;28;19913;-89
2023/01/11 11:14:56;;;;;;;;;;;10.50;87.40;;;;;;5043437;28;19908;-87
2023/01/11 11:17:33;;;;;;;;;;;10.60;86.60;;;;;;5034735;28;19916;-88
2023/01/11 11:19:58;;;;;;;;;;;10.60;86.90;;;;;;5035025;28;19947;-89
2023/01/11 11:22:24;;;;;;;;;;;10.60;86.50;;;;;;5044015;28;19916;-88
2023/01/11 11:25:16;;;;;;;;;;;10.70;86.00;;;;;;5037741;28;20070;-87
2023/01/11 11:27:54;;;;;;;;;;;10.70;85.30;;;;;;5022394;28;20011;-87
2023/01/11 11:30:29;;;;;;;;;;;10.60;85.20;;;;;;5009346;28;19928;-89
2023/01/11 11:32:58;;;;;;;;;;;10.60;85.30;;;;;;5034575;28;19917;-87
2023/01/11 11:35:35;;;;;;;;;;;10.60;85.60;;;;;;5039916;28;20385;-87
2023/01/11 11:38:00;;;;;;;;;;;10.60;85.40;;;;;;5035197;28;21688;-88
2023/01/11 11:40:31;;;;;;;;;;;10.60;85.30;;;;;;5031593;28;20003;-87
2023/01/11 11:43:15;;;;;;;;;;;10.50;85.60;;;;;;5045671;28;19921;-89
2023/01/11 11:45:50;;;;;;;;;;;10.50;84.70;;;;;;5030464;28;20348;-88
2023/01/11 11:48:16;;;;;;;;;;;10.50;84.50;;;;;;5030050;28;20000;-85
2023/01/11 11:50:42;;;;;;;;;;;10.40;84.00;;;;;;5028322;28;20428;-89
2023/01/11 11:53:11;;;;;;;;;;;10.30;83.40;;;;;;5027264;28;19917;-90
2023/01/11 11:55:37;;;;;;;;;;;10.30;83.30;;;;;;5027678;28;20269;-88
2023/01/11 11:58:04;;;;;;;;;;;10.10;84.00;;;;;;5034665;28;19913;-90
2023/01/11 12:00:33;;;;;;;;;;;10.10;84.20;;;;;;5029334;28;19913;-92
2023/01/11 12:03:01;;;;;;;;;;;10.10;84.50;;;;;;5022152;28;20007;-86
2023/01/11 12:05:27;;;;;;;;;;;10.20;85.40;;;;;;5029141;28;19956;-90
2023/01/11 12:07:56;;;;;;;;;;;10.30;84.00;;;;;;5029282;28;19974;-90
2023/01/11 12:10:23;;;;;;;;;;;10.50;84.20;;;;;;5027175;28;20398;-91
2023/01/11 12:12:56;;;;;;;;;;;10.50;83.30;;;;;;5037853;28;20377;-89
2023/01/11 12:15:26;;;;;;;;;;;10.70;83.00;;;;;;5039783;28;20344;-88
2023/01/11 12:17:51;;;;;;;;;;;10.90;83.70;;;;;;5035817;28;19920;-90
2023/01/11 12:20:37;;;;;;;;;;;11.00;82.90;;;;;;5036131;28;19909;-91
2023/01/11 12:23:14;;;;;;;;;;;11.00;82.10;;;;;;5043623;28;19920;-89
2023/01/11 12:25:54;;;;;;;;;;;11.00;82.00;;;;;;5036584;28;19912;-89
2023/01/11 12:28:27;;;;;;;;;;;10.80;81.80;;;;;;5037123;28;19913;-90
2023/01/11 12:31:21;;;;;;;;;;;10.70;82.50;;;;;;5052477;28;19917;-91
2023/01/11 12:34:05;;;;;;;;;;;10.60;82.70;;;;;;5042941;28;19952;-89
2023/01/11 12:36:46;;;;;;;;;;;10.40;82.70;;;;;;5042243;28;19912;-90
2023/01/11 12:39:34;;;;;;;;;;;10.20;82.80;;;;;;5046948;28;19913;-90
2023/01/11 12:42:03;;;;;;;;;;;10.20;82.30;;;;;;5047141;28;19913;-90
2023/01/11 12:44:46;;;;;;;;;;;10.20;82.50;;;;;;5026780;28;19913;-89
2023/01/11 12:47:31;;;;;;;;;;;10.10;83.50;;;;;;5018919;28;19963;-90
2023/01/11 12:50:03;;;;;;;;;;;10.20;82.80;;;;;;5018026;28;20347;-90
2023/01/11 12:52:39;;;;;;;;;;;10.30;83.20;;;;;;5025162;28;19916;-91
2023/01/11 12:55:14;;;;;;;;;;;10.30;83.70;;;;;;5039017;28;19913;-88
2023/01/11 12:58:00;;;;;;;;;;;10.50;83.30;;;;;;5025850;28;19924;-86
2023/01/11 13:00:34;;;;;;;;;;;10.50;83.10;;;;;;5047328;28;21201;-86
2023/01/11 13:03:21;;;;;;;;;;;10.60;82.40;;;;;;5045132;28;19920;-87
2023/01/11 13:05:49;;;;;;;;;;;10.60;83.40;;;;;;5029234;28;19991;-86
2023/01/11 13:08:19;;;;;;;;;;;10.80;82.80;;;;;;5034991;28;19925;-87
2023/01/11 13:10:57;;;;;;;;;;;10.90;81.60;;;;;;5034224;28;19917;-88
2023/01/11 13:13:27;;;;;;;;;;;11.00;78.90;;;;;;5046553;28;19919;-86
2023/01/11 13:15:59;;;;;;;;;;;11.00;78.20;;;;;;5030855;28;19917;-86
2023/01/11 13:18:31;;;;;;;;;;;11.00;77.20;;;;;;5030496;28;20184;-86
2023/01/11 13:21:14;;;;;;;;;;;10.80;78.50;;;;;;5037982;28;19952;-86
2023/01/11 13:23:42;;;;;;;;;;;10.70;78.60;;;;;;5018477;28;20474;-88
2023/01/11 13:26:26;;;;;;;;;;;10.60;78.80;;;;;;5035895;28;19913;-86
2023/01/11 13:28:58;;;;;;;;;;;10.60;78.80;;;;;;5033312;28;19971;-89
2023/01/11 13:31:25;;;;;;;;;;;10.50;78.70;;;;;;5059679;28;19903;-86
2023/01/11 13:33:53;;;;;;;;;;;10.50;78.70;;;;;;5045494;28;19928;-86
2023/01/11 13:36:22;;;;;;;;;;;10.50;78.70;;;;;;5025081;28;19921;-88
2023/01/11 13:39:00;;;;;;;;;;;10.60;77.40;;;;;;5034604;28;19913;-86
2023/01/11 13:41:31;;;;;;;;;;;10.50;77.60;;;;;;5036643;28;20607;-88
2023/01/11 13:44:16;;;;;;;;;;;10.50;78.00;;;;;;5053263;28;19912;-86
2023/01/11 13:47:01;;;;;;;;;;;10.60;77.90;;;;;;5053842;28;19935;-86
2023/01/11 13:49:37;;;;;;;;;;;10.50;76.50;;;;;;5020021;28;20449;-86
2023/01/11 13:52:07;;;;;;;;;;;10.50;77.50;;;;;;5034659;28;19913;-86
2023/01/11 13:54:52;;;;;;;;;;;10.60;76.70;;;;;;5054141;28;20011;-87
2023/01/11 13:57:22;;;;;;;;;;;10.60;76.80;;;;;;5050303;28;20430;-87
2023/01/11 13:59:50;;;;;;;;;;;10.80;77.40;;;;;;5045557;28;19958;-87
2023/01/11 14:02:23;;;;;;;;;;;10.80;76.40;;;;;;5046281;28;21184;-87
2023/01/11 14:04:51;;;;;;;;;;;10.80;75.60;;;;;;5042968;28;20321;-86
2023/01/11 14:07:43;;;;;;;;;;;10.70;76.40;;;;;;5038991;28;19923;-87
2023/01/11 14:10:14;;;;;;;;;;;10.70;76.10;;;;;;5053770;28;20040;-87
2023/01/11 14:12:46;;;;;;;;;;;10.60;75.10;;;;;;5051799;28;19966;-87
2023/01/11 14:15:21;;;;;;;;;;;10.60;75.70;;;;;;5054207;28;19963;-88
2023/01/11 14:17:49;;;;;;;;;;;10.50;75.40;;;;;;5044153;28;19966;-87
2023/01/11 14:20:31;;;;;;;;;;;10.50;76.10;;;;;;5041951;28;20378;-87
2023/01/11 14:22:56;;;;;;;;;;;10.50;75.60;;;;;;5018801;28;19913;-87
2023/01/11 14:25:25;;;;;;;;;;;10.50;75.70;;;;;;5014391;28;20381;-87
2023/01/11 14:27:53;;;;;;;;;;;10.50;75.70;;;;;;5032513;28;19920;-87
2023/01/11 14:30:37;;;;;;;;;;;10.40;75.90;;;;;;5056482;28;19916;-88
2023/01/11 14:33:14;;;;;;;;;;;10.30;76.00;;;;;;5060040;28;19928;-87
2023/01/11 14:35:52;;;;;;;;;;;10.30;75.80;;;;;;5035831;28;19919;-86
2023/01/11 14:38:33;;;;;;;;;;;10.20;76.20;;;;;;5041972;28;19912;-86
2023/01/11 14:41:08;;;;;;;;;;;10.20;75.70;;;;;;5035927;28;19923;-86
2023/01/11 14:43:42;;;;;;;;;;;10.10;75.80;;;;;;5039375;28;19908;-86
2023/01/11 14:46:08;;;;;;;;;;;10.10;76.80;;;;;;5057366;28;20296;-86
2023/01/11 14:48:36;;;;;;;;;;;10.10;76.70;;;;;;5054039;28;20007;-86
2023/01/11 14:51:12;;;;;;;;;;;10.20;76.00;;;;;;5044705;28;19952;-86
2023/01/11 14:53:45;;;;;;;;;;;10.20;76.40;;;;;;5043342;28;19913;-86
2023/01/11 14:56:29;;;;;;;;;;;10.20;76.40;;;;;;5039618;28;20007;-87
2023/01/11 14:59:00;;;;;;;;;;;10.20;76.60;;;;;;5056913;28;19975;-86
2023/01/11 15:01:25;;;;;;;;;;;10.30;75.80;;;;;;5039111;28;19908;-86
2023/01/11 15:03:54;;;;;;;;;;;10.30;76.10;;;;;;5037889;28;19909;-86
2023/01/11 15:06:21;;;;;;;;;;;10.40;75.90;;;;;;5041918;28;19922;-85
2023/01/11 15:08:46;;;;;;;;;;;10.40;75.20;;;;;;5051251;28;19913;-86
2023/01/11 15:11:32;;;;;;;;;;;10.30;75.30;;;;;;5043493;28;19909;-86